Time;durP1;ratioP1;P1;durP2;ratioP2;P2;SDS_P1;SDS_P2;PMS_P1;PMS_P2;Temp;Humidity;BMP_temperature;BMP_pressure;BME280_temperature;BME280_humidity;BME280_pressure;Samples;Min_cycle;Max_cycle;Signal;HPM_P1;HPM_P2
2023/06/19 00:01:43;;;;;;;;;7.33;7.33;;;;;20.58;65.02;100874.00;5020994;28;45296;-96
2023/06/19 00:04:09;;;;;;;;;5.00;5.00;;;;;20.53;64.98;100869.09;5020620;28;48459;-96
2023/06/19 00:06:34;;;;;;;;;6.00;6.00;;;;;20.36;64.63;100837.81;5019631;28;45526;-95
2023/06/19 00:09:00;;;;;;;;;8.33;8.00;;;;;20.41;64.49;100855.00;5008966;28;45104;-96
2023/06/19 00:11:25;;;;;;;;;5.33;5.00;;;;;20.48;64.79;100859.81;5001302;28;45347;-96
2023/06/19 00:13:50;;;;;;;;;8.00;7.33;;;;;20.50;64.71;100860.56;5000544;28;47215;-96
2023/06/19 00:16:16;;;;;;;;;7.00;7.00;;;;;20.55;64.64;100872.44;5000299;28;45394;-94
2023/06/19 00:18:41;;;;;;;;;6.00;5.67;;;;;20.58;64.38;100876.66;5017285;28;45407;-95
2023/06/19 00:21:08;;;;;;;;;7.00;7.00;;;;;20.49;64.54;100869.41;5015865;28;45380;-96
2023/06/19 00:23:34;;;;;;;;;6.67;6.67;;;;;20.58;64.45;100894.31;5013718;28;47103;-96
2023/06/19 00:26:03;;;;;;;;;5.00;5.00;;;;;20.48;64.42;100883.59;5020286;28;45406;-96
2023/06/19 00:28:29;;;;;;;;;8.67;7.33;;;;;20.54;64.59;100896.34;5018024;28;45522;-96
2023/06/19 00:30:54;;;;;;;;;6.00;6.00;;;;;20.53;64.23;100897.31;5020071;28;45553;-95
2023/06/19 00:33:20;;;;;;;;;3.33;3.33;;;;;20.45;64.01;100902.34;5016896;28;48200;-96
2023/06/19 00:35:45;;;;;;;;;8.00;8.00;;;;;20.49;64.94;100914.34;5000672;28;45749;-96
2023/06/19 00:38:11;;;;;;;;;9.00;7.67;;;;;20.50;64.53;100916.06;4999236;28;45921;-95
2023/06/19 00:40:37;;;;;;;;;8.00;7.33;;;;;20.35;64.30;100899.53;5012451;28;45395;-95
2023/06/19 00:43:02;;;;;;;;;5.00;5.00;;;;;20.44;64.35;100922.63;5018388;28;47310;-96
2023/06/19 00:45:28;;;;;;;;;5.33;5.33;;;;;20.37;64.54;100914.31;5019382;28;45302;-96
2023/06/19 00:47:55;;;;;;;;;6.00;6.00;;;;;20.42;64.55;100922.75;5019846;28;45428;-96
2023/06/19 00:50:24;;;;;;;;;8.00;7.67;;;;;20.46;64.47;100935.75;5020532;28;45406;-95
2023/06/19 00:52:50;;;;;;;;;9.00;7.00;;;;;20.24;64.63;100909.13;5019541;28;47337;-96
2023/06/19 00:55:16;;;;;;;;;5.33;5.33;;;;;20.30;64.43;100921.03;5007312;28;45925;-96
2023/06/19 00:57:42;;;;;;;;;6.67;6.67;;;;;20.26;64.64;100919.56;4999871;28;45302;-96
2023/06/19 01:00:10;;;;;;;;;7.67;6.00;;;;;20.32;64.89;100934.13;5016728;28;45320;-95
2023/06/19 01:02:36;;;;;;;;;8.67;8.00;;;;;20.20;64.47;100928.81;5016137;28;47374;-95
2023/06/19 01:05:01;;;;;;;;;7.00;7.00;;;;;20.21;64.61;100933.13;5001627;28;45494;-96
2023/06/19 01:07:56;;;;;;;;;8.00;7.50;;;;;20.23;64.38;100946.22;5019202;28;45417;-96
2023/06/19 01:10:27;;;;;;;;;9.67;9.67;;;;;20.15;64.65;100925.66;4965618;28;45706;-95
2023/06/19 01:13:04;;;;;;;;;8.33;8.33;;;;;20.23;64.90;100944.41;5000187;28;47311;-96
2023/06/19 01:15:29;;;;;;;;;7.75;7.00;;;;;20.11;64.87;100946.19;5000177;28;44988;-96
2023/06/19 01:17:57;;;;;;;;;4.33;3.67;;;;;20.13;65.06;100960.09;5029948;28;45371;-96
2023/06/19 01:20:23;;;;;;;;;7.67;7.67;;;;;20.09;65.07;100956.00;5019927;28;45393;-95
2023/06/19 01:22:48;;;;;;;;;7.33;7.33;;;;;20.00;65.18;100946.13;5013652;28;47109;-95
2023/06/19 01:25:14;;;;;;;;;9.33;7.67;;;;;19.99;65.47;100947.91;5011218;28;45534;-95
2023/06/19 01:27:42;;;;;;;;;7.00;7.00;;;;;20.05;65.31;100957.19;4999683;28;45506;-95
2023/06/19 01:30:09;;;;;;;;;5.33;5.00;;;;;20.05;64.90;100958.97;5000113;28;45471;-95
2023/06/19 01:32:49;;;;;;;;;6.67;6.67;;;;;20.03;65.17;100965.22;5022275;28;48066;-95
2023/06/19 01:35:19;;;;;;;;;7.00;7.00;;;;;19.82;65.54;100935.91;5017744;28;45551;-95
2023/06/19 01:37:46;;;;;;;;;8.25;6.75;;;;;19.98;65.15;100967.34;5017452;28;45588;-94
2023/06/19 01:43:53;;;;;;;;;6.33;6.00;;;;;19.93;65.79;100958.88;5025711;28;45348;-95
2023/06/19 02:00:05;;;;;;;;;10.67;10.67;;;;;19.68;65.65;100951.88;5022423;28;45480;-95
2023/06/19 02:02:30;;;;;;;;;9.75;9.00;;;;;19.68;65.67;100962.44;5021567;28;45372;-96
2023/06/19 09:41:13;;;;;;;;;10.75;10.75;;;;;24.17;55.04;101044.56;1269240;23;46234;-93
2023/06/19 09:43:42;;;;;;;;;9.25;9.25;;;;;24.28;55.08;101040.94;4875230;29;45374;-94
2023/06/19 09:46:09;;;;;;;;;7.67;7.67;;;;;24.38;54.68;101036.47;4862541;29;45514;-94
2023/06/19 09:48:44;;;;;;;;;9.00;9.00;;;;;24.49;53.62;101030.16;4858761;29;45842;-94
2023/06/19 09:51:12;;;;;;;;;9.00;7.67;;;;;24.55;54.10;101039.41;4861821;29;45522;-94
2023/06/19 09:53:37;;;;;;;;;8.67;8.67;;;;;24.62;54.61;101027.22;4875762;29;45614;-93
2023/06/19 09:56:03;;;;;;;;;9.75;8.75;;;;;24.71;54.17;101030.03;4868499;29;45453;-93
2023/06/19 09:58:30;;;;;;;;;10.00;9.33;;;;;24.83;54.25;101034.25;4878839;29;48091;-93
2023/06/19 10:00:57;;;;;;;;;10.33;10.00;;;;;24.98;53.35;101025.84;4857994;29;45504;-94
2023/06/19 10:03:31;;;;;;;;;9.33;9.33;;;;;25.07;52.95;101025.81;4860894;29;45329;-93
2023/06/19 10:05:59;;;;;;;;;9.67;8.67;;;;;25.20;53.04;101032.63;4882083;29;45322;-94
2023/06/19 10:08:30;;;;;;;;;8.33;8.33;;;;;25.31;52.80;101034.28;4864277;29;47446;-94
2023/06/19 10:10:57;;;;;;;;;7.33;7.33;;;;;25.38;52.68;101034.53;4879940;29;45502;-93
2023/06/19 10:13:31;;;;;;;;;9.33;9.00;;;;;25.45;52.75;101030.28;4863846;29;45403;-94
2023/06/19 10:15:57;;;;;;;;;9.00;9.00;;;;;25.51;52.20;101027.06;4866503;29;45233;-96
2023/06/19 10:18:24;;;;;;;;;9.33;7.33;;;;;25.60;52.90;101028.03;4861303;29;45897;-95
2023/06/19 10:20:50;;;;;;;;;10.67;9.67;;;;;25.73;52.92;101022.38;4876190;29;45034;-94
2023/06/19 10:23:22;;;;;;;;;5.67;5.67;;;;;25.93;52.26;101022.25;4882881;29;45267;-95
2023/06/19 10:25:54;;;;;;;;;8.00;7.67;;;;;26.16;52.82;101022.66;4883538;29;45328;-96
2023/06/19 10:28:21;;;;;;;;;9.67;9.00;;;;;26.40;51.54;101013.25;4865891;29;46827;-94
2023/06/19 10:30:55;;;;;;;;;11.33;11.33;;;;;26.63;50.82;101020.78;4883127;29;45019;-96
2023/06/19 10:33:25;;;;;;;;;9.33;9.33;;;;;26.70;50.19;101015.66;4876656;29;45390;-95
2023/06/19 10:35:51;;;;;;;;;11.33;11.00;;;;;26.74;50.81;101007.19;4876291;29;45401;-95
2023/06/19 10:38:16;;;;;;;;;12.00;10.00;;;;;26.80;50.57;101001.22;4865552;29;46935;-95
2023/06/19 10:40:43;;;;;;;;;11.00;10.00;;;;;26.83;49.55;100999.25;4864938;29;44949;-96
2023/06/19 10:45:55;;;;;;;;;7.67;7.33;;;;;26.75;49.16;101010.69;4942965;23;45790;-90
2023/06/19 10:48:23;;;;;;;;;8.67;8.67;;;;;26.75;50.16;101000.84;4935928;28;45951;-89
2023/06/19 10:50:49;;;;;;;;;11.33;10.33;;;;;26.76;49.39;101002.50;4908202;28;45535;-89
2023/06/19 10:53:28;;;;;;;;;11.00;11.00;;;;;26.76;49.43;101007.03;4910991;28;46985;-89
2023/06/19 10:56:00;;;;;;;;;5.67;5.67;;;;;26.73;49.45;101005.50;4901259;28;45575;-89
2023/06/19 10:58:27;;;;;;;;;7.33;7.33;;;;;26.72;49.45;100997.66;4912511;28;47962;-89
2023/06/19 11:00:53;;;;;;;;;6.33;6.33;;;;;26.78;49.58;101000.53;4910126;28;46396;-89
2023/06/19 11:03:27;;;;;;;;;11.00;11.00;;;;;26.90;49.36;100992.28;4928469;28;45528;-96
2023/06/19 11:08:28;;;;;;;;;11.33;11.33;;;;;27.20;49.03;100991.00;4877191;26;45352;-87
2023/06/19 11:10:55;;;;;;;;;10.67;10.00;;;;;27.35;48.02;100990.38;4917248;28;45546;-87
2023/06/19 11:13:21;;;;;;;;;8.33;8.33;;;;;27.44;48.27;100985.94;4888660;28;45575;-87
2023/06/19 11:15:49;;;;;;;;;11.33;11.00;;;;;27.55;47.30;100980.28;4900271;28;45664;-88
2023/06/19 11:18:17;;;;;;;;;9.67;8.67;;;;;27.60;47.11;100990.50;4904994;28;46077;-87
2023/06/19 11:20:48;;;;;;;;;8.67;8.67;;;;;27.68;47.05;100982.50;4901541;28;45915;-88
2023/06/19 11:23:13;;;;;;;;;10.00;9.00;;;;;27.83;47.28;100987.22;4910734;28;45643;-87
2023/06/19 11:25:41;;;;;;;;;8.67;8.67;;;;;27.95;46.36;100990.44;4888661;28;45544;-89
2023/06/19 11:28:14;;;;;;;;;8.33;8.00;;;;;28.05;46.18;100993.78;4915556;28;45776;-88
2023/06/19 11:30:43;;;;;;;;;9.00;8.00;;;;;28.16;46.24;100987.28;4902597;28;45365;-88
2023/06/19 11:33:22;;;;;;;;;10.00;9.00;;;;;28.28;45.67;100985.16;4887398;29;45565;-87
2023/06/19 11:35:57;;;;;;;;;9.00;8.00;;;;;28.32;45.45;100977.66;4872530;29;45365;-88
2023/06/19 11:38:24;;;;;;;;;9.00;9.00;;;;;28.36;45.24;100969.09;4887033;28;47709;-88
2023/06/19 11:40:50;;;;;;;;;10.67;10.67;;;;;28.46;45.38;100984.16;4893680;28;45360;-87
2023/06/19 11:43:31;;;;;;;;;8.67;8.67;;;;;28.51;45.38;100977.28;4919476;28;45459;-88
2023/06/19 11:46:07;;;;;;;;;9.75;9.00;;;;;28.50;44.64;100977.44;4885433;29;45439;-89
2023/06/19 11:48:36;;;;;;;;;10.00;10.00;;;;;28.40;45.09;100978.47;4890808;28;45760;-89
2023/06/19 11:51:02;;;;;;;;;9.00;9.00;;;;;28.32;45.09;100970.44;4900863;28;45520;-89
2023/06/19 11:53:27;;;;;;;;;5.67;5.67;;;;;28.24;44.80;100971.25;4902033;28;45458;-89
2023/06/19 11:55:53;;;;;;;;;9.00;9.00;;;;;28.17;44.71;100980.94;4892512;28;45367;-89
2023/06/19 11:58:20;;;;;;;;;10.00;8.75;;;;;28.07;45.35;100978.44;4893997;29;45746;-89
2023/06/19 12:00:46;;;;;;;;;8.67;8.00;;;;;27.98;45.55;100972.22;4883498;28;45697;-88
2023/06/19 12:03:11;;;;;;;;;8.00;8.00;;;;;27.87;45.10;100965.34;4909052;28;45398;-89
2023/06/19 12:05:37;;;;;;;;;9.33;7.00;;;;;27.79;45.55;100959.16;4891092;28;45634;-88
2023/06/19 12:08:04;;;;;;;;;7.00;7.00;;;;;27.71;45.57;100955.47;4896857;28;46282;-89
2023/06/19 12:10:32;;;;;;;;;9.75;7.00;;;;;27.63;45.45;100952.75;4913155;28;45896;-89
2023/06/19 12:12:58;;;;;;;;;7.67;7.67;;;;;27.55;45.42;100950.03;4908737;28;45489;-89
2023/06/19 12:15:24;;;;;;;;;8.33;8.00;;;;;27.44;45.41;100959.22;4903611;28;45572;-88
2023/06/19 12:17:51;;;;;;;;;9.50;9.25;;;;;27.38;45.81;100950.00;4897582;28;46580;-89
2023/06/19 12:20:17;;;;;;;;;8.00;8.00;;;;;27.33;45.96;100949.63;4902217;28;45573;-89
2023/06/19 12:22:42;;;;;;;;;8.33;8.33;;;;;27.31;45.96;100948.97;4902259;28;45775;-89
2023/06/19 12:25:08;;;;;;;;;9.00;9.00;;;;;27.29;46.46;100951.78;4910089;28;45313;-89
2023/06/19 12:27:34;;;;;;;;;7.33;7.33;;;;;27.23;46.05;100951.59;4916307;28;45694;-89
2023/06/19 12:29:59;;;;;;;;;8.75;8.75;;;;;27.12;46.56;100950.88;4915224;28;45600;-88
2023/06/19 12:32:27;;;;;;;;;11.00;10.00;;;;;27.10;47.09;100944.00;4915869;28;45072;-90
2023/06/19 12:34:53;;;;;;;;;9.00;9.00;;;;;27.05;46.72;100944.50;4901422;28;45423;-89
2023/06/19 12:37:21;;;;;;;;;7.00;7.00;;;;;27.03;46.42;100938.50;4899748;28;48395;-89
2023/06/19 12:39:50;;;;;;;;;10.00;10.00;;;;;27.02;47.09;100945.66;4915421;28;45295;-89
2023/06/19 12:42:16;;;;;;;;;9.67;9.67;;;;;27.01;46.90;100938.66;4915736;28;45424;-88
2023/06/19 12:44:44;;;;;;;;;9.33;9.33;;;;;26.96;46.88;100943.63;4910353;28;45647;-88
2023/06/19 12:47:10;;;;;;;;;10.00;9.00;;;;;26.97;47.22;100944.47;4894244;28;46905;-89
2023/06/19 12:49:36;;;;;;;;;9.00;9.00;;;;;26.95;47.10;100936.63;4890939;28;45631;-89
2023/06/19 12:52:02;;;;;;;;;8.33;8.00;;;;;26.90;46.53;100930.88;4920506;28;45622;-89
2023/06/19 12:54:28;;;;;;;;;9.67;8.67;;;;;26.88;47.08;100933.69;4881838;29;45538;-89
2023/06/19 12:56:53;;;;;;;;;8.00;8.00;;;;;26.84;46.75;100926.19;4903745;28;45637;-89
2023/06/19 12:59:19;;;;;;;;;10.67;10.67;;;;;26.75;46.61;100920.78;4909901;28;45485;-89
2023/06/19 13:01:44;;;;;;;;;9.25;9.25;;;;;26.67;46.79;100916.22;4900978;28;45464;-89
2023/06/19 13:04:12;;;;;;;;;9.00;9.00;;;;;26.65;47.37;100912.03;4917207;28;45510;-89
2023/06/19 13:06:37;;;;;;;;;11.67;9.67;;;;;26.58;47.69;100909.19;4898339;28;46010;-89
2023/06/19 13:09:04;;;;;;;;;9.75;9.75;;;;;26.55;47.55;100905.00;4899833;28;45404;-89
2023/06/19 13:11:30;;;;;;;;;8.00;8.00;;;;;26.50;48.23;100909.97;4896185;28;45529;-88
2023/06/19 13:13:55;;;;;;;;;10.50;9.00;;;;;26.48;48.12;100916.44;4890555;28;45464;-89
2023/06/19 13:16:21;;;;;;;;;7.25;7.25;;;;;26.44;48.49;100902.59;4889019;29;47487;-89
2023/06/19 13:18:46;;;;;;;;;9.67;9.67;;;;;26.42;49.39;100912.56;4882663;28;45329;-89
2023/06/19 13:21:15;;;;;;;;;9.33;9.33;;;;;26.36;50.00;100916.69;4907659;28;45299;-88
2023/06/19 13:23:40;;;;;;;;;11.00;11.00;;;;;26.31;50.34;100921.66;4906209;28;45520;-88
2023/06/19 13:26:06;;;;;;;;;13.00;9.67;;;;;26.26;50.80;100916.78;4901699;28;46641;-88
2023/06/19 13:28:31;;;;;;;;;11.33;10.33;;;;;26.24;51.19;100928.59;4908484;28;45658;-88
2023/06/19 13:30:57;;;;;;;;;9.75;9.75;;;;;26.20;51.29;100922.69;4885170;28;45474;-89
2023/06/19 13:33:22;;;;;;;;;13.25;11.00;;;;;26.17;51.64;100924.81;4909578;28;45708;-88
2023/06/19 13:35:48;;;;;;;;;14.50;11.75;;;;;26.10;52.23;100920.09;4897779;28;47366;-88
2023/06/19 13:38:13;;;;;;;;;9.33;9.33;;;;;26.05;52.46;100911.72;4897082;28;45425;-88
2023/06/19 13:40:38;;;;;;;;;11.33;11.33;;;;;26.01;53.22;100908.53;4914327;28;45501;-88
2023/06/19 13:43:06;;;;;;;;;10.67;10.67;;;;;26.01;52.56;100908.53;4912474;28;45521;-88
2023/06/19 13:45:31;;;;;;;;;11.00;10.50;;;;;26.00;52.74;100911.34;4891769;28;47393;-88
2023/06/19 13:47:57;;;;;;;;;10.50;10.50;;;;;25.97;52.77;100907.16;4899045;28;45397;-88
2023/06/19 13:50:23;;;;;;;;;9.33;9.33;;;;;25.97;53.28;100891.16;4893935;28;45512;-88
2023/06/19 13:52:49;;;;;;;;;12.00;10.75;;;;;25.98;52.93;100890.19;4891524;28;45687;-88
2023/06/19 13:55:15;;;;;;;;;10.00;8.50;;;;;26.02;53.09;100890.72;4909152;28;45733;-88
2023/06/19 13:57:41;;;;;;;;;10.67;10.67;;;;;26.08;53.73;100887.44;4922844;28;45539;-88
2023/06/19 14:00:08;;;;;;;;;12.00;11.67;;;;;26.10;52.73;100884.63;4920794;28;45436;-88
2023/06/19 14:02:34;;;;;;;;;9.00;9.00;;;;;26.15;53.24;100882.34;4911478;28;45317;-89
2023/06/19 14:04:59;;;;;;;;;11.25;11.25;;;;;26.22;52.87;100883.38;4904595;28;48576;-89
2023/06/19 14:07:26;;;;;;;;;10.75;10.75;;;;;26.28;52.89;100884.63;4902829;28;45332;-88
2023/06/19 14:09:53;;;;;;;;;9.75;8.00;;;;;26.33;52.71;100894.84;4912388;28;45251;-88
2023/06/19 14:12:18;;;;;;;;;9.00;9.00;;;;;26.36;52.67;100886.50;4917059;28;45717;-89
2023/06/19 14:14:44;;;;;;;;;13.00;11.67;;;;;26.38;53.09;100885.34;4900924;28;47736;-88
2023/06/19 14:17:09;;;;;;;;;13.33;10.67;;;;;26.42;52.15;100877.88;4919662;28;45385;-88
2023/06/19 14:19:34;;;;;;;;;8.00;7.33;;;;;26.44;52.31;100886.56;4919939;28;45542;-89
2023/06/19 14:22:01;;;;;;;;;7.50;7.50;;;;;26.47;51.89;100874.75;4916180;28;45588;-88
2023/06/19 14:24:59;;;;;;;;;10.67;10.00;;;;;26.47;51.66;100878.25;4915982;28;45579;-89
2023/06/19 14:27:47;;;;;;;;;13.75;11.00;;;;;26.47;50.90;100875.56;4878119;29;45475;-89
2023/06/19 14:30:17;;;;;;;;;9.67;9.67;;;;;26.43;50.98;100876.91;4892637;28;45564;-90
2023/06/19 14:32:42;;;;;;;;;11.00;10.00;;;;;26.46;50.86;100878.38;4907164;28;45372;-91
2023/06/19 14:35:08;;;;;;;;;11.67;11.67;;;;;26.48;51.74;100889.75;4898637;29;47990;-90
2023/06/19 14:37:33;;;;;;;;;11.33;10.33;;;;;26.48;51.26;100887.09;4886297;28;45693;-90
2023/06/19 14:39:59;;;;;;;;;8.33;8.33;;;;;26.52;51.49;100891.94;4888216;29;45364;-90
2023/06/19 14:42:24;;;;;;;;;11.50;11.50;;;;;26.55;50.49;100886.31;4876845;28;45930;-90
2023/06/19 14:44:50;;;;;;;;;10.00;9.67;;;;;26.54;51.17;100873.13;4895372;28;48273;-90
2023/06/19 14:47:15;;;;;;;;;10.00;10.00;;;;;26.59;50.43;100877.97;4883563;29;45350;-90
2023/06/19 14:49:41;;;;;;;;;10.00;10.00;;;;;26.60;50.82;100874.34;4881634;29;45289;-89
2023/06/19 14:52:07;;;;;;;;;11.75;11.50;;;;;26.61;50.42;100866.16;4898348;29;45323;-89
2023/06/19 14:54:34;;;;;;;;;12.75;9.75;;;;;26.64;50.36;100871.19;4882617;29;47739;-89
2023/06/19 14:57:00;;;;;;;;;11.33;10.33;;;;;26.62;50.09;100862.47;4881336;29;45515;-89
2023/06/19 14:59:25;;;;;;;;;14.00;14.00;;;;;26.69;50.98;100868.03;4908069;28;45389;-89
2023/06/19 15:01:50;;;;;;;;;9.50;9.50;;;;;26.66;50.56;100861.19;4905054;28;45543;-89
2023/06/19 15:04:17;;;;;;;;;11.67;11.33;;;;;26.64;50.28;100863.19;4901934;28;46584;-89
2023/06/19 15:06:47;;;;;;;;;8.75;8.75;;;;;26.63;50.65;100863.34;4914804;28;45564;-88
2023/06/19 15:09:12;;;;;;;;;11.33;11.00;;;;;26.60;50.08;100847.66;4903206;28;45459;-89
2023/06/19 15:11:38;;;;;;;;;12.00;12.00;;;;;26.55;49.71;100864.97;4897670;28;45795;-89
2023/06/19 15:14:03;;;;;;;;;12.00;12.00;;;;;26.46;49.98;100860.56;4913539;28;47178;-89
2023/06/19 15:16:29;;;;;;;;;9.33;9.33;;;;;26.44;50.01;100867.06;4909916;28;45216;-90
2023/06/19 15:18:54;;;;;;;;;12.00;10.67;;;;;26.39;50.84;100865.69;4918622;28;46192;-89
2023/06/19 15:21:19;;;;;;;;;11.00;11.00;;;;;26.33;50.90;100865.50;4911169;28;45395;-90
2023/06/19 15:23:45;;;;;;;;;10.67;10.00;;;;;26.32;51.23;100869.13;4906783;28;46807;-91
2023/06/19 15:26:10;;;;;;;;;11.00;11.00;;;;;26.32;51.17;100861.13;4913743;28;45465;-91
2023/06/19 15:28:36;;;;;;;;;10.67;9.67;;;;;26.28;51.77;100857.94;4915889;28;45895;-91
2023/06/19 15:31:02;;;;;;;;;10.00;10.00;;;;;26.27;52.59;100851.78;4903556;28;45608;-91
2023/06/19 15:33:28;;;;;;;;;10.00;9.33;;;;;26.24;52.11;100854.75;4903079;28;46355;-91
2023/06/19 15:35:53;;;;;;;;;11.00;11.00;;;;;26.23;52.28;100850.41;4897849;28;44871;-90
2023/06/19 15:38:19;;;;;;;;;11.67;11.67;;;;;26.20;53.15;100842.69;4878425;28;45366;-91
2023/06/19 15:40:46;;;;;;;;;10.00;10.00;;;;;26.19;52.52;100849.00;4907683;28;45424;-90
2023/06/19 15:43:11;;;;;;;;;9.00;9.00;;;;;26.16;53.43;100844.00;4900216;28;47676;-90
2023/06/19 15:45:36;;;;;;;;;8.00;8.00;;;;;26.11;53.04;100831.13;4900014;28;45486;-91
2023/06/19 15:48:02;;;;;;;;;10.00;9.00;;;;;26.08;52.72;100828.78;4925949;28;45362;-90
2023/06/19 15:50:27;;;;;;;;;10.33;10.33;;;;;26.06;53.71;100821.94;4902643;28;45444;-90
2023/06/19 15:52:53;;;;;;;;;11.33;11.33;;;;;26.04;53.86;100821.22;4913805;28;45683;-89
2023/06/19 15:55:18;;;;;;;;;11.67;11.67;;;;;25.97;53.90;100813.84;4894851;28;45451;-88
2023/06/19 15:57:43;;;;;;;;;11.33;10.33;;;;;25.93;54.09;100807.19;4886097;28;45413;-90
2023/06/19 16:00:11;;;;;;;;;8.33;8.33;;;;;25.91;54.36;100800.34;4898503;28;45466;-89
2023/06/19 16:02:36;;;;;;;;;7.50;7.00;;;;;25.87;54.58;100794.47;4892207;28;47561;-89
2023/06/19 16:05:03;;;;;;;;;9.00;8.00;;;;;25.84;54.82;100786.78;4891608;29;45459;-89
2023/06/19 16:07:29;;;;;;;;;9.33;9.33;;;;;25.86;55.21;100785.63;4902468;28;45545;-89
2023/06/19 16:09:54;;;;;;;;;8.50;8.50;;;;;25.82;55.18;100776.28;4895382;29;45538;-91
2023/06/19 16:12:19;;;;;;;;;13.75;11.00;;;;;25.84;55.73;100776.13;4897424;28;46636;-90
2023/06/19 16:14:45;;;;;;;;;10.33;10.33;;;;;25.83;55.69;100772.59;4917124;28;45572;-88
2023/06/19 16:17:10;;;;;;;;;9.67;8.33;;;;;25.83;55.78;100775.28;4896775;28;45557;-89
2023/06/19 16:19:35;;;;;;;;;10.33;9.00;;;;;25.82;55.79;100770.94;4900094;28;45270;-89
2023/06/19 16:22:01;;;;;;;;;9.00;7.67;;;;;25.82;55.72;100770.13;4905727;28;45760;-88
2023/06/19 16:24:26;;;;;;;;;10.33;10.33;;;;;25.82;56.40;100770.94;4913688;28;45660;-89
2023/06/19 16:26:52;;;;;;;;;10.00;10.00;;;;;25.78;56.44;100777.56;4896395;28;45572;-89
2023/06/19 16:29:17;;;;;;;;;9.00;9.00;;;;;25.72;55.58;100776.38;4897232;28;45439;-88
2023/06/19 16:31:42;;;;;;;;;8.00;8.00;;;;;25.71;55.50;100776.50;4910460;28;45565;-88
2023/06/19 16:34:08;;;;;;;;;11.67;10.67;;;;;25.69;55.90;100775.84;4895423;28;45628;-89
2023/06/19 16:36:33;;;;;;;;;10.00;10.00;;;;;25.68;55.17;100782.16;4891843;28;45546;-89
2023/06/19 16:38:59;;;;;;;;;8.00;8.00;;;;;25.65;55.08;100777.13;4890398;28;45588;-90
2023/06/19 16:41:25;;;;;;;;;11.00;11.00;;;;;25.67;55.26;100772.47;4910267;28;45563;-89
2023/06/19 16:43:51;;;;;;;;;10.50;10.50;;;;;25.63;55.11;100769.28;4906854;28;45480;-88
2023/06/19 16:46:16;;;;;;;;;10.25;10.25;;;;;25.65;55.17;100771.81;4908337;28;45531;-89
2023/06/19 16:48:41;;;;;;;;;9.67;8.00;;;;;25.62;54.94;100764.97;4899003;28;45954;-89
2023/06/19 16:51:07;;;;;;;;;11.67;10.00;;;;;25.59;55.41;100767.94;4911084;28;46369;-89
2023/06/19 16:53:32;;;;;;;;;11.50;9.50;;;;;25.56;55.43;100754.91;4904401;28;45434;-90
2023/06/19 16:55:58;;;;;;;;;10.67;10.67;;;;;25.56;55.35;100757.59;4892770;28;45587;-90
2023/06/19 16:58:24;;;;;;;;;12.00;10.33;;;;;25.54;55.75;100749.75;4914367;28;46765;-91
2023/06/19 17:00:51;;;;;;;;;13.00;13.00;;;;;25.52;55.61;100751.69;4904646;28;45897;-91
2023/06/19 17:03:17;;;;;;;;;11.50;10.25;;;;;25.51;55.43;100757.16;4922234;28;45487;-92
2023/06/19 17:05:43;;;;;;;;;10.00;10.00;;;;;25.46;55.24;100750.47;4923438;28;45393;-92
2023/06/19 17:08:08;;;;;;;;;10.33;10.33;;;;;25.46;55.42;100749.66;4913427;28;45512;-91
2023/06/19 17:10:33;;;;;;;;;10.33;10.33;;;;;25.45;55.71;100748.81;4903611;28;46681;-91
2023/06/19 17:12:59;;;;;;;;;10.67;10.67;;;;;25.45;55.99;100750.63;4915795;28;46341;-91
2023/06/19 17:15:30;;;;;;;;;10.67;10.67;;;;;25.42;55.96;100749.13;4900103;28;45656;-91
2023/06/19 17:17:56;;;;;;;;;10.33;10.33;;;;;25.43;56.50;100748.13;4896518;28;45563;-91
2023/06/19 17:20:21;;;;;;;;;10.33;10.33;;;;;25.42;56.23;100743.78;4887120;28;46509;-89
2023/06/19 17:22:47;;;;;;;;;10.67;10.67;;;;;25.44;56.54;100747.13;4913484;28;45442;-91
2023/06/19 17:25:12;;;;;;;;;10.00;10.00;;;;;25.43;56.86;100748.13;4901048;28;45533;-90
2023/06/19 17:27:37;;;;;;;;;9.00;9.00;;;;;25.44;56.56;100751.63;4906395;28;45415;-90
2023/06/19 17:30:05;;;;;;;;;11.67;11.33;;;;;25.44;56.71;100747.13;4901871;28;48161;-90
2023/06/19 17:32:31;;;;;;;;;15.33;12.67;;;;;25.46;56.23;100742.47;4900418;28;45521;-90
2023/06/19 17:35:03;;;;;;;;;11.33;11.33;;;;;25.47;55.97;100756.66;4909360;28;45580;-90
2023/06/19 17:37:29;;;;;;;;;10.00;10.00;;;;;25.45;56.55;100748.81;4907319;28;45582;-90
2023/06/19 17:39:55;;;;;;;;;11.75;11.75;;;;;25.47;56.53;100752.13;4895004;29;45788;-91
2023/06/19 17:42:20;;;;;;;;;12.00;11.33;;;;;25.48;56.14;100764.50;4906451;28;45566;-91
2023/06/19 17:44:46;;;;;;;;;9.50;8.75;;;;;25.49;56.45;100762.66;4913516;28;45441;-91
2023/06/19 17:47:12;;;;;;;;;10.33;10.33;;;;;25.50;56.47;100769.63;4903688;28;45692;-90
2023/06/19 17:49:38;;;;;;;;;9.33;9.33;;;;;25.47;56.25;100769.97;4903027;28;48110;-91
2023/06/19 17:52:04;;;;;;;;;11.67;10.67;;;;;25.47;56.21;100778.78;4901873;28;45282;-91
2023/06/19 17:54:29;;;;;;;;;9.75;8.75;;;;;25.44;56.29;100776.44;4921166;28;45453;-91
2023/06/19 17:56:54;;;;;;;;;11.00;10.67;;;;;25.41;55.76;100779.38;4920951;28;45308;-91
2023/06/19 17:59:20;;;;;;;;;15.25;14.25;;;;;25.37;55.65;100783.38;4892041;28;46934;-92
2023/06/19 18:01:45;;;;;;;;;18.25;17.75;;;;;25.36;56.15;100784.31;4903925;28;45395;-90
2023/06/19 18:04:10;;;;;;;;;13.75;13.75;;;;;25.37;56.21;100779.84;4901500;28;45313;-91
2023/06/19 18:06:36;;;;;;;;;13.50;13.50;;;;;25.38;56.02;100790.34;4902978;28;45384;-91
2023/06/19 18:09:02;;;;;;;;;11.50;11.50;;;;;25.36;56.21;100794.97;4905714;28;47027;-91
2023/06/19 18:11:27;;;;;;;;;12.00;12.00;;;;;25.35;56.01;100802.16;4890543;29;45474;-90
2023/06/19 18:13:52;;;;;;;;;9.75;9.75;;;;;25.28;55.57;100795.75;4918924;28;45327;-90
2023/06/19 18:16:18;;;;;;;;;10.33;10.33;;;;;25.26;55.82;100794.25;4889339;28;45514;-90
2023/06/19 18:18:43;;;;;;;;;11.33;11.33;;;;;25.22;56.13;100805.19;4908588;28;47175;-91
2023/06/19 18:21:08;;;;;;;;;10.00;10.00;;;;;25.18;56.39;100800.31;4904211;28;45526;-92
2023/06/19 18:23:34;;;;;;;;;12.25;12.25;;;;;25.14;56.41;100796.25;4898846;28;45460;-91
2023/06/19 18:25:59;;;;;;;;;7.75;7.75;;;;;25.09;56.00;100791.41;4893799;28;45812;-91
2023/06/19 18:28:24;;;;;;;;;10.00;9.00;;;;;25.05;56.43;100777.53;4888698;28;46059;-90
2023/06/19 18:30:53;;;;;;;;;13.25;12.25;;;;;25.06;56.58;100775.72;4889858;28;45475;-91
2023/06/19 18:33:18;;;;;;;;;15.25;13.00;;;;;25.06;56.55;100773.91;4906209;28;45560;-91
2023/06/19 18:35:43;;;;;;;;;13.50;12.00;;;;;25.01;56.00;100775.31;4901939;28;45366;-91
2023/06/19 18:38:09;;;;;;;;;10.00;9.67;;;;;24.99;56.34;100770.16;4892121;28;46794;-90
2023/06/19 18:40:34;;;;;;;;;10.00;10.00;;;;;24.98;56.55;100771.13;4910868;28;45410;-91
2023/06/19 18:42:59;;;;;;;;;10.33;8.67;;;;;24.94;56.34;100767.09;4917509;28;45239;-93
2023/06/19 18:58:21;;;;;;;;;11.25;11.00;;;;;24.75;56.52;100771.50;1291395;26;45971;-89
2023/06/19 19:00:47;;;;;;;;;12.00;11.00;;;;;24.78;57.25;100784.53;4881496;29;45447;-90
2023/06/19 19:03:13;;;;;;;;;9.00;9.00;;;;;24.73;57.04;100778.81;4881083;29;47533;-90
2023/06/19 19:05:38;;;;;;;;;10.50;10.50;;;;;24.71;56.84;100777.28;4882196;29;45404;-89
2023/06/19 19:08:05;;;;;;;;;12.25;11.50;;;;;24.71;57.05;100786.09;4898258;29;45642;-90
2023/06/19 19:10:31;;;;;;;;;13.67;12.00;;;;;24.69;57.10;100786.25;4881448;29;45315;-90
2023/06/19 19:12:57;;;;;;;;;11.25;11.25;;;;;24.67;57.10;100790.03;4880971;29;45622;-89
2023/06/19 19:15:22;;;;;;;;;15.00;13.75;;;;;24.65;57.23;100787.53;4882267;29;45538;-89
2023/06/19 19:17:47;;;;;;;;;13.00;11.50;;;;;24.59;57.48;100774.81;4899680;28;48113;-89
2023/06/19 19:20:14;;;;;;;;;10.75;10.75;;;;;24.59;57.69;100782.81;4889068;29;45353;-89
2023/06/19 19:22:39;;;;;;;;;13.50;13.50;;;;;24.61;57.96;100795.94;4863133;29;45816;-90
2023/06/19 19:25:05;;;;;;;;;16.00;15.00;;;;;24.54;57.53;100793.84;4863526;29;45638;-89
2023/06/19 19:27:30;;;;;;;;;8.25;6.50;;;;;24.48;57.71;100791.78;4893630;29;46348;-89